Time,TemperatureF,DewpointF,PressureIn,WindDirection,WindDirectionDegrees,WindSpeedMPH,WindSpeedGustMPH,Humidity,HourlyPrecipIn,Conditions,Clouds,dailyrainin,SoftwareType,DateUTC
2013-05-28 00:03:00,64.0,56.0,30.13,SSW,196,3.0,3.0,75,0.00,,,0.00,,2013-05-28 04:03:00,
2013-05-28 00:13:00,64.0,56.0,30.13,SSW,196,3.0,3.0,75,0.00,,,0.00,,2013-05-28 04:13:00,
2013-05-28 00:22:00,64.0,56.0,30.13,SSW,196,3.0,3.0,75,0.00,,,0.00,,2013-05-28 04:22:00,
2013-05-28 01:33:00,63.0,56.0,30.14,SSW,196,3.0,3.0,77,0.00,,,0.00,,2013-05-28 05:33:00,
2013-05-28 01:42:00,63.0,56.0,30.14,SSW,196,3.0,3.0,77,0.00,,,0.00,,2013-05-28 05:42:00,
2013-05-28 01:52:00,63.0,56.0,30.14,SSW,196,3.0,3.0,77,0.00,,,0.00,,2013-05-28 05:52:00,
2013-05-28 02:02:00,63.0,56.0,30.14,SSW,196,3.0,3.0,77,0.00,,,0.00,,2013-05-28 06:02:00,
2013-05-28 02:12:00,63.0,56.0,30.14,SSW,196,3.0,3.0,77,0.00,,,0.00,,2013-05-28 06:12:00,
2013-05-28 02:32:00,63.0,56.0,30.12,SSW,196,3.0,3.0,78,0.00,,,0.00,,2013-05-28 06:32:00,
2013-05-28 02:42:00,63.0,56.0,30.12,SSW,196,3.0,3.0,78,0.00,,,0.00,,2013-05-28 06:42:00,
2013-05-28 02:52:00,63.0,56.0,30.12,SSW,196,3.0,3.0,78,0.00,,,0.00,,2013-05-28 06:52:00,
2013-05-28 03:02:00,63.0,56.0,30.12,SSW,196,3.0,3.0,78,0.00,,,0.00,,2013-05-28 07:02:00,
2013-05-28 03:11:00,63.0,56.0,30.12,SSW,196,3.0,3.0,78,0.00,,,0.00,,2013-05-28 07:11:00,
2013-05-28 03:32:00,64.0,57.0,30.11,SSW,196,3.0,3.0,78,0.00,,,0.00,,2013-05-28 07:32:00,
2013-05-28 03:42:00,64.0,57.0,30.11,SSW,196,3.0,3.0,78,0.00,,,0.00,,2013-05-28 07:42:00,
2013-05-28 03:52:00,64.0,57.0,30.11,SSW,196,3.0,3.0,77,0.00,,,0.00,,2013-05-28 07:52:00,
2013-05-28 04:02:00,64.0,57.0,30.10,SSW,196,3.0,3.0,78,0.00,,,0.00,,2013-05-28 08:02:00,
2013-05-28 04:12:00,64.0,57.0,30.10,SSW,196,3.0,3.0,78,0.00,,,0.00,,2013-05-28 08:12:00,
2013-05-28 04:22:00,64.0,57.0,30.10,SSW,196,3.0,3.0,78,0.00,,,0.00,,2013-05-28 08:22:00,
2013-05-28 04:32:00,64.0,57.0,30.10,SSW,196,3.0,3.0,78,0.00,,,0.00,,2013-05-28 08:32:00,
2013-05-28 04:42:00,64.0,57.0,30.10,SSW,196,3.0,3.0,78,0.00,,,0.00,,2013-05-28 08:42:00,
2013-05-28 04:51:00,64.0,57.0,30.10,SSW,196,3.0,3.0,78,0.00,,,0.00,,2013-05-28 08:51:00,
2013-05-28 05:01:00,64.0,56.0,30.11,SSW,196,3.0,3.0,76,0.00,,,0.00,,2013-05-28 09:01:00,
2013-05-28 05:11:00,64.0,56.0,30.11,SSW,196,3.0,3.0,76,0.00,,,0.00,,2013-05-28 09:11:00,
2013-05-28 05:22:00,64.0,57.0,30.11,SSW,196,3.0,3.0,77,0.00,,,0.00,,2013-05-28 09:22:00,
2013-05-28 05:33:00,64.0,57.0,30.11,SSW,196,3.0,3.0,77,0.00,,,0.00,,2013-05-28 09:33:00,
2013-05-28 05:43:00,64.0,57.0,30.11,SSW,196,3.0,3.0,77,0.00,,,0.00,,2013-05-28 09:43:00,
2013-05-28 05:53:00,64.0,56.0,30.11,SSW,196,3.0,3.0,76,0.00,,,0.00,,2013-05-28 09:53:00,
2013-05-28 06:03:00,64.0,57.0,30.11,SSW,196,3.0,3.0,77,0.00,,,0.00,,2013-05-28 10:03:00,
2013-05-28 06:12:00,64.0,57.0,30.11,SSW,196,3.0,3.0,77,0.00,,,0.00,,2013-05-28 10:12:00,
2013-05-28 06:23:00,64.0,57.0,30.11,SSW,196,3.0,3.0,77,0.00,,,0.00,,2013-05-28 10:23:00,
2013-05-28 06:32:00,64.0,57.0,30.11,SSW,196,3.0,3.0,77,0.00,,,0.00,,2013-05-28 10:32:00,
2013-05-28 06:53:00,62.0,56.0,30.13,SSW,196,3.0,3.0,81,0.00,,,0.00,,2013-05-28 10:53:00,
2013-05-28 07:02:00,62.0,56.0,30.14,SSW,196,3.0,3.0,81,0.00,,,0.00,,2013-05-28 11:02:00,
2013-05-28 07:11:00,62.0,56.0,30.14,SSW,196,3.0,3.0,81,0.00,,,0.00,,2013-05-28 11:11:00,
2013-05-28 07:22:00,62.0,56.0,30.14,SSW,196,3.0,3.0,81,0.00,,,0.00,,2013-05-28 11:22:00,
2013-05-28 07:32:00,63.0,57.0,30.14,SSW,196,3.0,3.0,80,0.00,,,0.00,,2013-05-28 11:32:00,
2013-05-28 07:42:00,63.0,57.0,30.14,SSW,196,3.0,3.0,80,0.00,,,0.00,,2013-05-28 11:42:00,
2013-05-28 07:52:00,63.0,57.0,30.14,SSW,196,3.0,3.0,81,0.00,,,0.00,,2013-05-28 11:52:00,
2013-05-28 08:02:00,63.0,57.0,30.15,SSW,196,3.0,3.0,81,0.00,,,0.00,,2013-05-28 12:02:00,
2013-05-28 08:11:00,63.0,57.0,30.15,SSW,196,3.0,3.0,81,0.00,,,0.00,,2013-05-28 12:11:00,
2013-05-28 08:21:00,63.0,57.0,30.15,SSW,196,3.0,3.0,81,0.00,,,0.00,,2013-05-28 12:21:00,
2013-05-28 08:32:00,64.0,59.0,30.14,WNW,284,0.0,0.0,84,0.00,,,0.00,,2013-05-28 12:32:00,
2013-05-28 08:42:00,64.0,59.0,30.14,WNW,284,0.0,0.0,84,0.00,,,0.00,,2013-05-28 12:42:00,
2013-05-28 08:52:00,64.0,58.0,30.14,NNE,17,0.0,0.0,82,0.00,,,0.00,,2013-05-28 12:52:00,
2013-05-28 09:01:00,65.0,59.0,30.14,WNW,282,0.0,0.0,80,0.00,,,0.00,,2013-05-28 13:01:00,
2013-05-28 09:11:00,65.0,59.0,30.14,WNW,282,0.0,0.0,80,0.00,,,0.00,,2013-05-28 13:11:00,
2013-05-28 09:22:00,65.0,58.0,30.14,WNW,282,0.0,0.0,79,0.00,,,0.00,,2013-05-28 13:22:00,
2013-05-28 09:32:00,65.0,58.0,30.14,WNW,282,0.0,0.0,79,0.00,,,0.00,,2013-05-28 13:32:00,
2013-05-28 09:42:00,65.0,58.0,30.14,WNW,282,0.0,0.0,79,0.00,,,0.00,,2013-05-28 13:42:00,
2013-05-28 09:52:00,66.0,58.0,30.16,WSW,254,0.0,0.0,76,0.00,,,0.00,,2013-05-28 13:52:00,
2013-05-28 10:02:00,65.0,58.0,30.16,NNW,329,0.0,0.0,77,0.00,,,0.00,,2013-05-28 14:02:00,
2013-05-28 10:12:00,65.0,58.0,30.16,NNW,329,0.0,0.0,77,0.00,,,0.00,,2013-05-28 14:12:00,
2013-05-28 10:21:00,66.0,60.0,30.16,NE,51,0.0,0.0,80,0.00,,,0.00,,2013-05-28 14:21:00,
2013-05-28 10:32:00,66.0,59.0,30.16,NNW,331,0.0,0.0,77,0.00,,,0.00,,2013-05-28 14:32:00,
2013-05-28 10:42:00,66.0,59.0,30.16,NNW,331,0.0,0.0,77,0.00,,,0.00,,2013-05-28 14:42:00,
2013-05-28 10:52:00,67.0,58.0,30.16,SSE,154,0.0,0.0,74,0.00,,,0.00,,2013-05-28 14:52:00,
2013-05-28 11:01:00,67.0,58.0,30.16,SSE,154,0.0,0.0,74,0.00,,,0.00,,2013-05-28 15:01:00,
2013-05-28 11:11:00,67.0,58.0,30.16,SSE,154,0.0,0.0,74,0.00,,,0.00,,2013-05-28 15:11:00,
2013-05-28 11:21:00,69.0,60.0,30.15,SE,141,0.0,0.0,73,0.00,,,0.00,,2013-05-28 15:21:00,
2013-05-28 11:33:00,69.0,58.0,30.15,SSE,148,0.0,0.0,68,0.00,,,0.00,,2013-05-28 15:33:00,
2013-05-28 11:43:00,69.0,58.0,30.15,SSE,148,0.0,0.0,68,0.00,,,0.00,,2013-05-28 15:43:00,
2013-05-28 11:52:00,71.0,59.0,30.14,SSE,168,0.0,0.0,66,0.00,,,0.00,,2013-05-28 15:52:00,
2013-05-28 12:03:00,72.0,59.0,30.14,WNW,291,0.0,1.0,64,0.00,,,0.00,,2013-05-28 16:03:00,
2013-05-28 12:13:00,72.0,59.0,30.14,WNW,291,0.0,1.0,64,0.00,,,0.00,,2013-05-28 16:13:00,
2013-05-28 12:23:00,72.0,59.0,30.14,WNW,291,0.0,1.0,64,0.00,,,0.00,,2013-05-28 16:23:00,
2013-05-28 12:33:00,73.0,59.0,30.14,ESE,119,0.0,0.0,62,0.00,,,0.00,,2013-05-28 16:33:00,
2013-05-28 12:42:00,73.0,59.0,30.14,ESE,119,0.0,0.0,62,0.00,,,0.00,,2013-05-28 16:42:00,
2013-05-28 12:53:00,73.0,59.0,30.14,ESE,119,0.0,0.0,62,0.00,,,0.00,,2013-05-28 16:53:00,
2013-05-28 13:02:00,73.0,59.0,30.14,ESE,119,0.0,0.0,62,0.00,,,0.00,,2013-05-28 17:02:00,
2013-05-28 13:32:00,76.0,60.0,30.12,SSW,198,4.0,4.0,58,0.00,,,0.00,,2013-05-28 17:32:00,
2013-05-28 13:42:00,76.0,58.0,30.11,WSW,258,0.0,1.0,54,0.00,,,0.00,,2013-05-28 17:42:00,
2013-05-28 13:52:00,76.0,58.0,30.11,WSW,258,0.0,1.0,54,0.00,,,0.00,,2013-05-28 17:52:00,
2013-05-28 14:01:00,76.0,59.0,30.11,SSE,168,3.0,3.0,56,0.00,,,0.00,,2013-05-28 18:01:00,
2013-05-28 14:11:00,76.0,59.0,30.11,SSE,168,3.0,3.0,56,0.00,,,0.00,,2013-05-28 18:11:00,
2013-05-28 14:22:00,76.0,59.0,30.11,SSE,168,3.0,3.0,56,0.00,,,0.00,,2013-05-28 18:22:00,
2013-05-28 14:32:00,76.0,59.0,30.11,SSE,168,3.0,3.0,56,0.00,,,0.00,,2013-05-28 18:32:00,
2013-05-28 14:43:00,76.0,55.0,30.10,SSE,153,0.0,0.0,48,0.00,,,0.00,,2013-05-28 18:43:00,
2013-05-28 14:52:00,76.0,55.0,30.10,SSE,153,0.0,0.0,48,0.00,,,0.00,,2013-05-28 18:52:00,
2013-05-28 15:01:00,77.0,55.0,30.09,South,172,0.0,0.0,47,0.00,,,0.00,,2013-05-28 19:01:00,
2013-05-28 15:11:00,77.0,55.0,30.09,South,172,0.0,0.0,47,0.00,,,0.00,,2013-05-28 19:11:00,
2013-05-28 15:21:00,78.0,57.0,30.09,SE,127,0.0,3.0,48,0.00,,,0.00,,2013-05-28 19:21:00,
2013-05-28 15:32:00,78.0,57.0,30.09,SE,127,0.0,3.0,48,0.00,,,0.00,,2013-05-28 19:32:00,
2013-05-28 15:42:00,78.0,57.0,30.09,SE,127,0.0,3.0,48,0.00,,,0.00,,2013-05-28 19:42:00,
2013-05-28 15:52:00,77.0,57.0,30.09,ESE,107,2.0,5.0,50,0.00,,,0.00,,2013-05-28 19:52:00,
2013-05-28 16:02:00,77.0,57.0,30.09,SE,140,0.0,1.0,50,0.00,,,0.00,,2013-05-28 20:02:00,
2013-05-28 16:11:00,77.0,57.0,30.09,SE,140,0.0,1.0,50,0.00,,,0.00,,2013-05-28 20:11:00,
2013-05-28 16:22:00,77.0,57.0,30.09,SE,140,0.0,1.0,50,0.00,,,0.00,,2013-05-28 20:22:00,
2013-05-28 16:32:00,76.0,56.0,30.09,SSE,152,0.0,0.0,50,0.00,,,0.00,,2013-05-28 20:32:00,
2013-05-28 16:42:00,76.0,56.0,30.09,SSE,152,0.0,0.0,50,0.00,,,0.00,,2013-05-28 20:42:00,
2013-05-28 16:52:00,76.0,56.0,30.09,SSE,152,0.0,0.0,50,0.00,,,0.00,,2013-05-28 20:52:00,
2013-05-28 17:02:00,76.0,58.0,30.08,SSE,157,0.0,3.0,53,0.00,,,0.00,,2013-05-28 21:02:00,
2013-05-28 17:11:00,76.0,57.0,30.09,East,80,0.0,0.0,52,0.00,,,0.00,,2013-05-28 21:11:00,
2013-05-28 17:22:00,76.0,57.0,30.09,East,80,0.0,0.0,52,0.00,,,0.00,,2013-05-28 21:22:00,
2013-05-28 17:33:00,75.0,58.0,30.09,South,182,3.0,3.0,55,0.00,,,0.00,,2013-05-28 21:33:00,
2013-05-28 17:43:00,75.0,58.0,30.08,SSE,152,0.0,3.0,55,0.00,,,0.00,,2013-05-28 21:43:00,
2013-05-28 17:53:00,75.0,58.0,30.08,SSE,152,0.0,3.0,55,0.00,,,0.00,,2013-05-28 21:53:00,
2013-05-28 18:02:00,74.0,56.0,30.07,ESE,115,0.0,0.0,54,0.00,,,0.00,,2013-05-28 22:02:00,
2013-05-28 18:13:00,74.0,56.0,30.08,SSW,202,1.0,6.0,54,0.00,,,0.00,,2013-05-28 22:13:00,
2013-05-28 18:22:00,74.0,56.0,30.08,SSW,202,1.0,6.0,54,0.00,,,0.00,,2013-05-28 22:22:00,
2013-05-28 18:33:00,74.0,56.0,30.08,SSW,202,1.0,6.0,54,0.00,,,0.00,,2013-05-28 22:33:00,
2013-05-28 18:42:00,74.0,56.0,30.08,SSW,202,1.0,6.0,54,0.00,,,0.00,,2013-05-28 22:42:00,
2013-05-28 18:52:00,74.0,56.0,30.08,SSW,202,1.0,6.0,54,0.00,,,0.00,,2013-05-28 22:52:00,
2013-05-28 19:02:00,73.0,56.0,30.08,South,173,0.0,1.0,55,0.00,,,0.00,,2013-05-28 23:02:00,
2013-05-28 19:11:00,73.0,56.0,30.07,SW,219,3.0,4.0,55,0.00,,,0.00,,2013-05-28 23:11:00,
2013-05-28 19:22:00,73.0,56.0,30.07,SW,219,3.0,4.0,55,0.00,,,0.00,,2013-05-28 23:22:00,
2013-05-28 19:32:00,73.0,56.0,30.07,SW,219,3.0,4.0,55,0.00,,,0.00,,2013-05-28 23:32:00,
2013-05-28 19:42:00,73.0,56.0,30.07,SW,219,3.0,4.0,55,0.00,,,0.00,,2013-05-28 23:42:00,
2013-05-28 19:52:00,72.0,57.0,30.08,SSE,163,0.0,0.0,59,0.00,,,0.00,,2013-05-28 23:52:00,
2013-05-28 20:02:00,72.0,58.0,30.09,SSW,210,0.0,0.0,61,0.00,,,0.00,,2013-05-29 00:02:00,
2013-05-28 20:11:00,72.0,58.0,30.09,SSW,210,0.0,0.0,61,0.00,,,0.00,,2013-05-29 00:11:00,
2013-05-28 20:22:00,71.0,57.0,30.09,SSW,213,0.0,0.0,62,0.00,,,0.00,,2013-05-29 00:22:00,
2013-05-28 20:32:00,70.0,57.0,30.09,SSW,212,0.0,0.0,64,0.00,,,0.00,,2013-05-29 00:32:00,
2013-05-28 20:42:00,70.0,57.0,30.09,SSW,212,0.0,0.0,64,0.00,,,0.00,,2013-05-29 00:42:00,
2013-05-28 20:52:00,70.0,57.0,30.09,SSW,212,0.0,0.0,64,0.00,,,0.00,,2013-05-29 00:52:00,
2013-05-28 21:01:00,69.0,58.0,30.10,SSW,212,0.0,0.0,67,0.00,,,0.00,,2013-05-29 01:01:00,
2013-05-28 21:11:00,69.0,58.0,30.10,SSW,212,0.0,0.0,67,0.00,,,0.00,,2013-05-29 01:11:00,
2013-05-28 21:22:00,69.0,58.0,30.09,SSW,212,0.0,0.0,68,0.00,,,0.00,,2013-05-29 01:22:00,
2013-05-28 21:32:00,69.0,58.0,30.09,SSW,212,0.0,0.0,68,0.00,,,0.00,,2013-05-29 01:32:00,
2013-05-28 21:42:00,69.0,58.0,30.09,SSW,212,0.0,0.0,68,0.00,,,0.00,,2013-05-29 01:42:00,
2013-05-28 21:52:00,67.0,58.0,30.09,SSW,212,0.0,0.0,72,0.00,,,0.00,,2013-05-29 01:52:00,
2013-05-28 22:02:00,67.0,58.0,30.09,SSW,212,0.0,0.0,72,0.00,,,0.00,,2013-05-29 02:02:00,
2013-05-28 22:12:00,67.0,58.0,30.09,SSW,212,0.0,0.0,72,0.00,,,0.00,,2013-05-29 02:12:00,
2013-05-28 22:21:00,67.0,58.0,30.09,SSW,212,0.0,0.0,72,0.00,,,0.00,,2013-05-29 02:21:00,
2013-05-28 22:32:00,66.0,57.0,30.11,SSW,212,0.0,0.0,74,0.00,,,0.00,,2013-05-29 02:32:00,
2013-05-28 22:42:00,66.0,58.0,30.12,SSW,212,0.0,0.0,75,0.00,,,0.00,,2013-05-29 02:42:00,
2013-05-28 22:52:00,66.0,58.0,30.12,SSW,212,0.0,0.0,75,0.00,,,0.00,,2013-05-29 02:52:00,
2013-05-28 23:02:00,66.0,58.0,30.12,SSW,212,0.0,0.0,76,0.00,,,0.00,,2013-05-29 03:02:00,
2013-05-28 23:12:00,66.0,58.0,30.12,SSW,212,0.0,0.0,76,0.00,,,0.00,,2013-05-29 03:12:00,
2013-05-28 23:22:00,66.0,58.0,30.12,SSW,212,0.0,0.0,76,0.00,,,0.00,,2013-05-29 03:22:00,
2013-05-28 23:33:00,66.0,58.0,30.11,SSW,212,0.0,0.0,76,0.00,,,0.00,,2013-05-29 03:33:00,
2013-05-28 23:43:00,66.0,58.0,30.11,SSW,212,0.0,0.0,76,0.00,,,0.00,,2013-05-29 03:43:00,
2013-05-28 23:53:00,66.0,58.0,30.11,SSW,212,0.0,0.0,76,0.00,,,0.00,,2013-05-29 03:53:00,